Time;durP1;ratioP1;P1;durP2;ratioP2;P2;SDS_P1;SDS_P2;PMS_P1;PMS_P2;Temp;Humidity;BMP_temperature;BMP_pressure;BME280_temperature;BME280_humidity;BME280_pressure;Samples;Min_cycle;Max_cycle;Signal;HPM_P1;HPM_P2
2023/01/09 00:02:13;;;;;;;0.10;0.10;;;;;;;;;;4976156;28;20042;-76
2023/01/09 00:04:40;;;;;;;0.10;0.10;;;;;;;;;;4955025;28;20160;-80
2023/01/09 00:07:06;;;;;;;0.10;0.10;;;;;;;;;;4957469;28;20073;-79
2023/01/09 00:09:32;;;;;;;0.10;0.10;;;;;;;;;;4988780;28;21831;-79
2023/01/09 00:11:58;;;;;;;0.10;0.10;;;;;;;;;;4957058;28;20512;-79
2023/01/09 00:14:24;;;;;;;0.90;0.90;;;;;;;;;;4955833;28;20047;-79
2023/01/09 00:16:50;;;;;;;0.10;0.10;;;;;;;;;;4954481;28;20038;-80
2023/01/09 00:19:16;;;;;;;1.90;1.65;;;;;;;;;;4955568;28;20407;-80
2023/01/09 00:21:42;;;;;;;0.10;0.10;;;;;;;;;;4955962;28;20049;-80
2023/01/09 00:24:09;;;;;;;0.10;0.10;;;;;;;;;;4987988;28;20046;-80
2023/01/09 00:26:35;;;;;;;0.10;0.10;;;;;;;;;;4957669;28;20053;-80
2023/01/09 00:29:01;;;;;;;0.10;0.10;;;;;;;;;;4955575;28;20050;-80
2023/01/09 00:31:27;;;;;;;0.10;0.10;;;;;;;;;;4956351;28;20055;-80
2023/01/09 00:34:00;;;;;;;0.10;0.10;;;;;;;;;;4974529;28;20136;-81
2023/01/09 00:36:27;;;;;;;0.10;0.10;;;;;;;;;;4973124;28;20060;-81
2023/01/09 00:38:53;;;;;;;0.10;0.10;;;;;;;;;;4956725;28;21018;-81
2023/01/09 00:41:25;;;;;;;0.10;0.10;;;;;;;;;;4945755;28;21271;-80
2023/01/09 00:43:55;;;;;;;0.10;0.10;;;;;;;;;;4956539;28;20059;-80
2023/01/09 00:46:24;;;;;;;0.10;0.10;;;;;;;;;;4956023;28;20077;-80
2023/01/09 00:48:50;;;;;;;0.10;0.10;;;;;;;;;;4957309;28;20041;-80
2023/01/09 00:51:18;;;;;;;0.10;0.10;;;;;;;;;;4974451;28;20038;-81
2023/01/09 00:53:44;;;;;;;0.10;0.10;;;;;;;;;;4956696;28;20054;-81
2023/01/09 00:56:13;;;;;;;0.10;0.10;;;;;;;;;;4956215;28;20673;-81
2023/01/09 00:58:39;;;;;;;0.10;0.10;;;;;;;;;;4956269;28;20099;-81
2023/01/09 01:01:05;;;;;;;0.10;0.10;;;;;;;;;;4955660;28;20053;-80
2023/01/09 01:03:31;;;;;;;0.10;0.10;;;;;;;;;;4955500;28;20061;-80
2023/01/09 01:08:42;;;;;;;0.10;0.10;;;;;;;;;;4957363;28;20053;-81
2023/01/09 01:11:09;;;;;;;0.10;0.10;;;;;;;;;;4955339;28;20128;-79
2023/01/09 01:13:36;;;;;;;0.10;0.10;;;;;;;;;;4955371;28;20052;-81
2023/01/09 01:16:10;;;;;;;0.10;0.10;;;;;;;;;;4956084;28;20057;-81
2023/01/09 01:18:37;;;;;;;0.10;0.10;;;;;;;;;;4955776;28;20046;-80
2023/01/09 01:21:10;;;;;;;0.10;0.10;;;;;;;;;;4955897;28;20047;-80
2023/01/09 01:23:37;;;;;;;0.15;0.15;;;;;;;;;;4956299;28;20527;-80
2023/01/09 01:26:04;;;;;;;0.10;0.10;;;;;;;;;;4974641;28;20086;-80
2023/01/09 01:28:30;;;;;;;0.10;0.10;;;;;;;;;;4955779;28;20505;-80
2023/01/09 01:30:56;;;;;;;0.10;0.10;;;;;;;;;;4957383;28;20391;-81
2023/01/09 01:33:22;;;;;;;0.10;0.10;;;;;;;;;;4959092;28;20452;-81
2023/01/09 01:35:48;;;;;;;0.10;0.10;;;;;;;;;;4959822;28;20058;-81
2023/01/09 01:38:14;;;;;;;0.10;0.10;;;;;;;;;;4958642;28;20057;-80
2023/01/09 01:40:40;;;;;;;0.10;0.10;;;;;;;;;;4959462;28;20401;-80
2023/01/09 01:43:08;;;;;;;0.10;0.10;;;;;;;;;;4958886;28;20070;-80
2023/01/09 01:45:35;;;;;;;0.10;0.10;;;;;;;;;;4990457;28;20136;-78
2023/01/09 01:48:07;;;;;;;0.10;0.10;;;;;;;;;;4957946;28;20049;-80
2023/01/09 01:50:42;;;;;;;0.10;0.10;;;;;;;;;;4958061;28;20765;-80
2023/01/09 01:53:10;;;;;;;0.10;0.10;;;;;;;;;;4959364;28;20042;-80
2023/01/09 01:55:38;;;;;;;0.10;0.10;;;;;;;;;;4960142;28;20149;-80
2023/01/09 01:58:06;;;;;;;0.10;0.10;;;;;;;;;;4956460;28;20057;-80
2023/01/09 02:00:34;;;;;;;0.10;0.10;;;;;;;;;;4975356;28;20094;-80
2023/01/09 02:03:01;;;;;;;0.10;0.10;;;;;;;;;;4956390;28;20058;-80
2023/01/09 02:05:27;;;;;;;0.10;0.10;;;;;;;;;;4956882;28;20536;-80
2023/01/09 02:07:54;;;;;;;0.10;0.10;;;;;;;;;;4978143;28;20058;-80
2023/01/09 02:10:22;;;;;;;0.10;0.10;;;;;;;;;;4957309;28;20050;-80
2023/01/09 02:12:49;;;;;;;0.10;0.10;;;;;;;;;;4958313;28;20050;-80
2023/01/09 02:15:16;;;;;;;0.10;0.10;;;;;;;;;;4958472;28;20339;-80
2023/01/09 02:17:54;;;;;;;0.10;0.10;;;;;;;;;;4956985;28;20048;-79
2023/01/09 02:20:32;;;;;;;0.10;0.10;;;;;;;;;;4958054;28;20133;-80
2023/01/09 02:22:58;;;;;;;0.10;0.10;;;;;;;;;;4958257;28;20043;-80
2023/01/09 02:25:43;;;;;;;0.10;0.10;;;;;;;;;;4959245;28;20602;-80
2023/01/09 02:28:27;;;;;;;0.17;0.17;;;;;;;;;;4957578;28;20046;-79
2023/01/09 02:31:01;;;;;;;0.10;0.10;;;;;;;;;;4958234;28;20057;-80
2023/01/09 02:33:27;;;;;;;0.10;0.10;;;;;;;;;;4957689;28;20050;-80
2023/01/09 02:35:53;;;;;;;0.10;0.10;;;;;;;;;;4947188;28;20096;-80
2023/01/09 02:38:19;;;;;;;0.10;0.10;;;;;;;;;;4957078;28;20206;-80
2023/01/09 02:40:45;;;;;;;0.10;0.10;;;;;;;;;;4959043;28;20104;-80
2023/01/09 02:43:12;;;;;;;0.10;0.10;;;;;;;;;;4958170;28;20054;-80
2023/01/09 02:45:38;;;;;;;0.10;0.10;;;;;;;;;;4958270;28;20050;-80
2023/01/09 02:48:04;;;;;;;0.10;0.10;;;;;;;;;;4945890;28;20046;-80
2023/01/09 02:50:35;;;;;;;0.10;0.10;;;;;;;;;;4957912;28;20050;-80
2023/01/09 02:53:01;;;;;;;0.10;0.10;;;;;;;;;;4958782;28;20774;-80
2023/01/09 02:55:34;;;;;;;0.10;0.10;;;;;;;;;;4957357;28;20046;-80
2023/01/09 02:58:08;;;;;;;0.10;0.10;;;;;;;;;;4958245;28;20058;-80
2023/01/09 03:01:01;;;;;;;0.10;0.10;;;;;;;;;;4957958;28;20042;-80
2023/01/09 03:03:48;;;;;;;0.10;0.10;;;;;;;;;;4959870;28;20058;-80
2023/01/09 03:06:21;;;;;;;0.10;0.10;;;;;;;;;;4954581;28;20042;-80
2023/01/09 03:08:53;;;;;;;0.00;0.00;;;;;;;;;;4956377;28;20530;-80
2023/01/09 03:11:20;;;;;;;0.10;0.10;;;;;;;;;;4940133;28;20038;-81
2023/01/09 03:13:54;;;;;;;0.10;0.10;;;;;;;;;;4957150;28;20450;-80
2023/01/09 03:16:23;;;;;;;0.10;0.10;;;;;;;;;;4956335;28;20053;-80
2023/01/09 03:18:51;;;;;;;0.10;0.10;;;;;;;;;;4956873;28;20050;-80
2023/01/09 03:21:17;;;;;;;0.20;0.20;;;;;;;;;;4955017;28;20187;-80
2023/01/09 03:23:51;;;;;;;0.10;0.10;;;;;;;;;;4958317;28;20050;-80
2023/01/09 03:26:18;;;;;;;0.10;0.10;;;;;;;;;;4956247;28;20037;-80
2023/01/09 03:28:44;;;;;;;0.10;0.10;;;;;;;;;;4956986;28;20108;-79
2023/01/09 03:31:10;;;;;;;0.10;0.10;;;;;;;;;;4957593;28;20094;-82
2023/01/09 03:33:36;;;;;;;0.10;0.10;;;;;;;;;;4958291;28;20085;-80
2023/01/09 03:36:02;;;;;;;0.10;0.10;;;;;;;;;;4957882;28;20449;-80
2023/01/09 03:38:28;;;;;;;0.10;0.10;;;;;;;;;;4942683;28;20046;-80
2023/01/09 03:40:54;;;;;;;0.10;0.10;;;;;;;;;;4976800;28;20496;-80
2023/01/09 03:43:20;;;;;;;0.10;0.10;;;;;;;;;;4956457;28;20099;-80
2023/01/09 03:45:46;;;;;;;0.10;0.10;;;;;;;;;;4972955;28;20594;-79
2023/01/09 03:48:12;;;;;;;0.10;0.10;;;;;;;;;;4957081;28;20065;-80
2023/01/09 03:50:41;;;;;;;0.10;0.10;;;;;;;;;;4956370;28;20073;-79
2023/01/09 03:53:07;;;;;;;0.10;0.10;;;;;;;;;;4974738;28;20088;-80
2023/01/09 03:55:33;;;;;;;0.10;0.10;;;;;;;;;;4976940;28;20042;-80
2023/01/09 03:57:59;;;;;;;0.10;0.10;;;;;;;;;;4974324;28;20084;-80
2023/01/09 04:00:25;;;;;;;0.10;0.10;;;;;;;;;;4957955;28;20147;-80
2023/01/09 04:02:51;;;;;;;0.10;0.10;;;;;;;;;;4953538;28;20136;-80
2023/01/09 04:05:17;;;;;;;0.10;0.10;;;;;;;;;;4957367;28;20137;-80
2023/01/09 04:07:43;;;;;;;0.10;0.10;;;;;;;;;;4955340;28;20053;-80
2023/01/09 04:10:10;;;;;;;0.10;0.10;;;;;;;;;;4955794;28;20049;-79
2023/01/09 04:12:36;;;;;;;0.10;0.10;;;;;;;;;;4956267;28;20213;-80
2023/01/09 04:15:02;;;;;;;0.10;0.10;;;;;;;;;;4957432;28;20521;-79
2023/01/09 04:17:28;;;;;;;0.10;0.10;;;;;;;;;;4955895;28;20666;-79
2023/01/09 04:19:54;;;;;;;0.10;0.10;;;;;;;;;;4957113;28;20132;-79
2023/01/09 04:22:20;;;;;;;0.10;0.10;;;;;;;;;;4975255;28;20099;-79
2023/01/09 04:24:46;;;;;;;0.10;0.10;;;;;;;;;;4976868;28;20045;-79
2023/01/09 04:27:12;;;;;;;0.10;0.10;;;;;;;;;;4975987;28;20046;-80
2023/01/09 04:29:38;;;;;;;0.10;0.10;;;;;;;;;;4971498;28;20612;-80
2023/01/09 04:32:05;;;;;;;0.10;0.10;;;;;;;;;;4957478;28;20049;-80
2023/01/09 04:34:31;;;;;;;0.10;0.10;;;;;;;;;;4957599;28;20078;-81
2023/01/09 04:36:57;;;;;;;0.43;0.43;;;;;;;;;;4956008;28;20057;-80
2023/01/09 04:39:23;;;;;;;0.10;0.10;;;;;;;;;;4975973;28;20046;-79
2023/01/09 04:41:49;;;;;;;0.10;0.10;;;;;;;;;;4941040;28;20100;-79
2023/01/09 04:44:19;;;;;;;0.10;0.10;;;;;;;;;;4942524;28;20050;-79
2023/01/09 04:46:45;;;;;;;0.10;0.10;;;;;;;;;;4938968;28;20048;-79
2023/01/09 04:49:11;;;;;;;0.10;0.10;;;;;;;;;;4935873;28;20042;-79
2023/01/09 04:51:37;;;;;;;0.10;0.10;;;;;;;;;;4934466;28;20051;-80
2023/01/09 04:54:03;;;;;;;0.10;0.10;;;;;;;;;;4970361;28;20035;-79
2023/01/09 04:56:29;;;;;;;0.10;0.10;;;;;;;;;;4937262;28;20051;-80
2023/01/09 04:58:56;;;;;;;0.10;0.10;;;;;;;;;;4937853;28;21485;-79
2023/01/09 05:01:22;;;;;;;0.10;0.10;;;;;;;;;;4937587;28;20490;-79
2023/01/09 05:03:48;;;;;;;0.10;0.10;;;;;;;;;;4939566;28;20059;-79
2023/01/09 05:06:14;;;;;;;0.10;0.10;;;;;;;;;;4941266;28;20055;-80
2023/01/09 05:08:40;;;;;;;0.40;0.40;;;;;;;;;;4972602;28;20054;-79
2023/01/09 05:11:06;;;;;;;0.10;0.10;;;;;;;;;;4973491;28;20078;-80
2023/01/09 05:13:32;;;;;;;0.08;0.08;;;;;;;;;;4941014;28;21755;-80
2023/01/09 05:15:58;;;;;;;0.10;0.10;;;;;;;;;;4942653;28;20050;-80
2023/01/09 05:18:24;;;;;;;0.10;0.10;;;;;;;;;;4941847;28;20087;-80
2023/01/09 05:20:50;;;;;;;0.10;0.10;;;;;;;;;;4971903;28;20178;-79
2023/01/09 05:23:16;;;;;;;0.10;0.10;;;;;;;;;;4941446;28;20060;-79
2023/01/09 05:25:42;;;;;;;0.10;0.10;;;;;;;;;;4943292;28;20241;-80
2023/01/09 05:28:08;;;;;;;0.10;0.10;;;;;;;;;;4940904;28;20077;-80
2023/01/09 05:30:34;;;;;;;0.10;0.10;;;;;;;;;;4941657;28;20397;-80
2023/01/09 05:33:00;;;;;;;0.10;0.10;;;;;;;;;;4939953;28;20178;-80
2023/01/09 05:35:26;;;;;;;0.10;0.10;;;;;;;;;;4958246;28;20059;-80
2023/01/09 05:37:52;;;;;;;0.10;0.10;;;;;;;;;;4939214;28;20130;-78
2023/01/09 05:40:18;;;;;;;0.10;0.10;;;;;;;;;;4939881;28;20058;-83
2023/01/09 05:42:45;;;;;;;0.10;0.10;;;;;;;;;;4969019;28;20310;-77
2023/01/09 05:45:11;;;;;;;0.10;0.10;;;;;;;;;;4954531;28;20389;-77
2023/01/09 05:47:37;;;;;;;0.10;0.10;;;;;;;;;;4975704;28;20404;-79
2023/01/09 05:50:04;;;;;;;0.10;0.10;;;;;;;;;;4975634;28;20050;-79
2023/01/09 05:52:30;;;;;;;0.10;0.10;;;;;;;;;;4954888;28;20049;-79
2023/01/09 05:54:56;;;;;;;0.10;0.10;;;;;;;;;;4957721;28;20055;-90
2023/01/09 05:57:22;;;;;;;0.10;0.10;;;;;;;;;;4977358;28;20148;-81
2023/01/09 05:59:48;;;;;;;0.10;0.10;;;;;;;;;;4957296;28;20318;-86
2023/01/09 06:02:14;;;;;;;0.10;0.10;;;;;;;;;;4970369;28;20053;-79
2023/01/09 06:04:42;;;;;;;0.20;0.20;;;;;;;;;;4955821;28;20110;-81
2023/01/09 06:07:08;;;;;;;0.10;0.10;;;;;;;;;;4986697;28;21383;-79
2023/01/09 06:09:35;;;;;;;0.60;0.52;;;;;;;;;;4950878;28;20042;-82
2023/01/09 06:12:01;;;;;;;0.10;0.10;;;;;;;;;;4948040;28;20046;-78
2023/01/09 06:14:27;;;;;;;0.10;0.10;;;;;;;;;;4938104;28;20062;-79
2023/01/09 06:16:53;;;;;;;0.10;0.10;;;;;;;;;;4951922;28;20061;-79
2023/01/09 06:19:19;;;;;;;0.10;0.10;;;;;;;;;;4954817;28;20046;-84
2023/01/09 06:21:45;;;;;;;0.00;0.00;;;;;;;;;;4946997;28;20049;-78
2023/01/09 06:24:11;;;;;;;0.10;0.10;;;;;;;;;;4958658;28;20042;-79
2023/01/09 06:26:37;;;;;;;0.10;0.10;;;;;;;;;;4955186;28;20053;-83
2023/01/09 06:29:03;;;;;;;0.10;0.10;;;;;;;;;;4958002;28;20062;-80
2023/01/09 06:31:29;;;;;;;0.10;0.10;;;;;;;;;;4959323;28;20780;-80
2023/01/09 06:33:55;;;;;;;0.15;0.15;;;;;;;;;;4959819;28;20087;-80
2023/01/09 06:36:21;;;;;;;0.20;0.20;;;;;;;;;;4957815;28;20565;-80
2023/01/09 06:38:47;;;;;;;0.10;0.10;;;;;;;;;;4959459;28;20127;-80
2023/01/09 06:41:13;;;;;;;0.40;0.40;;;;;;;;;;4977903;28;20053;-80
2023/01/09 06:43:39;;;;;;;0.10;0.10;;;;;;;;;;4960068;28;20069;-80
2023/01/09 06:46:05;;;;;;;0.10;0.10;;;;;;;;;;4990028;28;20458;-80
2023/01/09 06:48:32;;;;;;;0.80;0.40;;;;;;;;;;4959143;28;20054;-79
2023/01/09 06:50:58;;;;;;;0.10;0.10;;;;;;;;;;4956470;28;20102;-81
2023/01/09 06:53:24;;;;;;;0.10;0.10;;;;;;;;;;4959415;28;20764;-82
2023/01/09 06:55:50;;;;;;;0.10;0.10;;;;;;;;;;4948537;28;20400;-80
2023/01/09 06:58:16;;;;;;;0.10;0.10;;;;;;;;;;4954951;28;20137;-79
2023/01/09 07:00:43;;;;;;;0.10;0.10;;;;;;;;;;4954718;28;20042;-80
2023/01/09 07:03:10;;;;;;;0.10;0.10;;;;;;;;;;4958225;28;20073;-79
2023/01/09 07:05:41;;;;;;;0.10;0.10;;;;;;;;;;4956680;28;20046;-81
2023/01/09 07:08:07;;;;;;;0.47;0.45;;;;;;;;;;4958018;28;20520;-81
2023/01/09 07:10:33;;;;;;;0.20;0.20;;;;;;;;;;4955224;28;20042;-80
2023/01/09 07:12:59;;;;;;;0.10;0.10;;;;;;;;;;4953904;28;20046;-80
2023/01/09 07:15:25;;;;;;;0.10;0.10;;;;;;;;;;4957813;28;20047;-80
2023/01/09 07:17:51;;;;;;;0.10;0.10;;;;;;;;;;4952190;28;20149;-79
2023/01/09 07:20:17;;;;;;;0.10;0.10;;;;;;;;;;4953470;28;20129;-80
2023/01/09 07:22:44;;;;;;;0.10;0.10;;;;;;;;;;4957329;28;20053;-81
2023/01/09 07:25:10;;;;;;;0.10;0.10;;;;;;;;;;4956563;28;21643;-79
2023/01/09 07:27:36;;;;;;;0.20;0.20;;;;;;;;;;4956705;28;20053;-79
2023/01/09 07:30:03;;;;;;;1.17;0.65;;;;;;;;;;4957354;28;20042;-79
2023/01/09 07:32:29;;;;;;;0.10;0.10;;;;;;;;;;4955658;28;20041;-79
2023/01/09 07:34:55;;;;;;;0.10;0.10;;;;;;;;;;4955870;28;20050;-80
2023/01/09 07:37:21;;;;;;;0.98;0.50;;;;;;;;;;4958074;28;20503;-80
2023/01/09 07:39:47;;;;;;;0.10;0.10;;;;;;;;;;4956929;28;20479;-79
2023/01/09 07:42:14;;;;;;;0.10;0.10;;;;;;;;;;4958116;28;20072;-79
2023/01/09 07:44:40;;;;;;;0.10;0.10;;;;;;;;;;4955568;28;20604;-79
2023/01/09 07:47:06;;;;;;;0.10;0.10;;;;;;;;;;4956030;28;20641;-79
2023/01/09 07:49:32;;;;;;;0.20;0.20;;;;;;;;;;4989475;28;20068;-79
2023/01/09 07:51:58;;;;;;;0.10;0.10;;;;;;;;;;4956297;28;20046;-80
2023/01/09 07:54:24;;;;;;;0.10;0.10;;;;;;;;;;4955582;28;20050;-80
2023/01/09 07:56:50;;;;;;;0.15;0.15;;;;;;;;;;4955403;28;20049;-79
2023/01/09 07:59:16;;;;;;;0.10;0.10;;;;;;;;;;4955327;28;20042;-79
2023/01/09 08:01:42;;;;;;;0.10;0.10;;;;;;;;;;4975913;28;20080;-79
2023/01/09 08:04:08;;;;;;;0.10;0.10;;;;;;;;;;4945675;28;20077;-79
2023/01/09 08:06:34;;;;;;;0.10;0.10;;;;;;;;;;4952577;28;20061;-79
2023/01/09 08:09:00;;;;;;;0.35;0.35;;;;;;;;;;4954369;28;20050;-80
2023/01/09 08:11:26;;;;;;;0.10;0.10;;;;;;;;;;4954609;28;20054;-79
2023/01/09 08:13:53;;;;;;;0.10;0.10;;;;;;;;;;4954977;28;20127;-79
2023/01/09 08:16:19;;;;;;;0.10;0.10;;;;;;;;;;4955435;28;20047;-78
2023/01/09 08:18:45;;;;;;;0.10;0.10;;;;;;;;;;4953749;28;20038;-78
2023/01/09 08:21:11;;;;;;;0.10;0.10;;;;;;;;;;4952067;28;20590;-78
2023/01/09 08:23:37;;;;;;;0.10;0.10;;;;;;;;;;4953539;28;20467;-79
2023/01/09 08:26:04;;;;;;;0.10;0.10;;;;;;;;;;4953821;28;20056;-79
2023/01/09 08:28:30;;;;;;;0.10;0.10;;;;;;;;;;4953870;28;20049;-78
2023/01/09 08:30:56;;;;;;;0.10;0.10;;;;;;;;;;4954751;28;20046;-78
2023/01/09 08:33:22;;;;;;;0.10;0.10;;;;;;;;;;4952900;28;20505;-79
2023/01/09 08:35:48;;;;;;;0.10;0.10;;;;;;;;;;4953825;28;20041;-78
2023/01/09 08:38:14;;;;;;;0.10;0.10;;;;;;;;;;4953132;28;20141;-78
2023/01/09 08:40:40;;;;;;;0.10;0.10;;;;;;;;;;4952415;28;20039;-79
2023/01/09 08:48:36;;;;;;;0.10;0.10;;;;;;;;;;4953185;28;20054;-80
2023/01/09 08:51:02;;;;;;;0.20;0.20;;;;;;;;;;4952593;28;20107;-80
2023/01/09 08:53:30;;;;;;;11.40;2.92;;;;;;;;;;4972603;28;20046;-79
2023/01/09 08:55:56;;;;;;;0.30;0.30;;;;;;;;;;4943794;28;20058;-81
2023/01/09 08:58:22;;;;;;;0.20;0.20;;;;;;;;;;4951893;28;20058;-82
2023/01/09 09:00:48;;;;;;;0.10;0.10;;;;;;;;;;4956093;28;20054;-80
2023/01/09 09:03:14;;;;;;;0.10;0.10;;;;;;;;;;4949958;28;20042;-80
2023/01/09 09:05:40;;;;;;;0.13;0.13;;;;;;;;;;5021208;28;20053;-80
2023/01/09 09:08:06;;;;;;;0.30;0.30;;;;;;;;;;4955676;28;20045;-81
2023/01/09 09:10:32;;;;;;;0.00;0.00;;;;;;;;;;4942435;28;21479;-79
2023/01/09 09:12:59;;;;;;;0.10;0.10;;;;;;;;;;4952360;28;20497;-87
2023/01/09 09:15:26;;;;;;;0.10;0.10;;;;;;;;;;4973018;28;20524;-88
2023/01/09 09:17:56;;;;;;;0.10;0.10;;;;;;;;;;4957399;28;20069;-86
2023/01/09 09:20:23;;;;;;;0.10;0.10;;;;;;;;;;4946602;28;20042;-87
2023/01/09 09:22:49;;;;;;;0.10;0.10;;;;;;;;;;4974335;28;20046;-85
2023/01/09 09:25:16;;;;;;;0.10;0.10;;;;;;;;;;4953996;28;20157;-83
2023/01/09 09:27:42;;;;;;;0.10;0.10;;;;;;;;;;4952923;28;20054;-87
2023/01/09 09:30:09;;;;;;;0.10;0.10;;;;;;;;;;4977741;28;20053;-91
2023/01/09 09:32:35;;;;;;;0.10;0.10;;;;;;;;;;4975933;28;20042;-88
2023/01/09 09:35:01;;;;;;;0.10;0.10;;;;;;;;;;4957514;28;20057;-86
2023/01/09 09:37:27;;;;;;;0.10;0.10;;;;;;;;;;4975106;28;20053;-86
2023/01/09 09:39:53;;;;;;;0.10;0.10;;;;;;;;;;4957323;28;20042;-87
2023/01/09 09:45:28;;;;;;;0.47;0.47;;;;;;;;;;4978287;28;20182;-94
2023/01/09 09:48:13;;;;;;;0.10;0.10;;;;;;;;;;4992057;28;20049;-85
2023/01/09 09:50:42;;;;;;;0.10;0.10;;;;;;;;;;4972762;28;20053;-86
2023/01/09 09:53:23;;;;;;;0.10;0.10;;;;;;;;;;4944280;28;20129;-83
2023/01/09 09:55:50;;;;;;;1.08;0.63;;;;;;;;;;4938005;28;20667;-86
2023/01/09 09:58:27;;;;;;;0.10;0.10;;;;;;;;;;4959076;28;20042;-89
2023/01/09 10:00:53;;;;;;;0.10;0.10;;;;;;;;;;4958617;28;20151;-85
2023/01/09 10:03:22;;;;;;;0.10;0.10;;;;;;;;;;4957457;28;20492;-82
2023/01/09 10:05:50;;;;;;;0.10;0.10;;;;;;;;;;4959750;28;20676;-80
2023/01/09 10:08:17;;;;;;;;;;;;;;;;;;4955437;28;20488;-80
2023/01/09 10:10:51;;;;;;;0.10;0.10;;;;;;;;;;4956124;28;19932;-80
2023/01/09 10:16:03;;;;;;;;;;;;;;;;;;4989437;28;20569;-81
2023/01/09 10:18:31;;;;;;;;;;;;;;;;;;4958199;28;19979;-81
2023/01/09 10:20:57;;;;;;;;;;;;;;;;;;4975415;28;19925;-81
2023/01/09 10:23:23;;;;;;;;;;;;;;;;;;4956061;28;19922;-83
2023/01/09 10:25:49;;;;;;;;;;;;;;;;;;4958988;28;19977;-81
2023/01/09 10:28:16;;;;;;;;;;;;;;;;;;4976882;28;19979;-87
2023/01/09 10:30:42;;;;;;;;;;;;;;;;;;4956468;28;19972;-84
2023/01/09 10:33:08;;;;;;;;;;;;;;;;;;4957328;28;20004;-84
2023/01/09 10:35:34;;;;;;;;;;;;;;;;;;4970792;28;19925;-85
2023/01/09 10:38:00;;;;;;;;;;;;;;;;;;4979120;28;19956;-83
2023/01/09 10:40:26;;;;;;;;;;;;;;;;;;4957934;28;19922;-84
2023/01/09 10:42:52;;;;;;;;;;;;;;;;;;4955335;28;19972;-82
2023/01/09 10:45:18;;;;;;;;;;;;;;;;;;4955040;28;19926;-82
2023/01/09 10:47:44;;;;;;;;;;;;;;;;;;4954604;28;19975;-82
2023/01/09 10:50:10;;;;;;;;;;;;;;;;;;4954223;28;19926;-85
2023/01/09 10:52:36;;;;;;;;;;;;;;;;;;4990245;28;19921;-88
2023/01/09 10:55:02;;;;;;;;;;;;;;;;;;4967004;28;19975;-94
2023/01/09 10:57:28;;;;;;;;;;;;;;;;;;4958796;28;20064;-83
2023/01/09 10:59:53;;;;;;;;;;;;;;;;;;4979819;28;19922;-83
2023/01/09 11:02:19;;;;;;;;;;;;;;;;;;4954859;28;20064;-84
2023/01/09 11:04:45;;;;;;;;;;;;;;;;;;4953034;28;19965;-84
2023/01/09 11:07:11;;;;;;;;;;;;;;;;;;4955853;28;19979;-80
2023/01/09 11:09:37;;;;;;;;;;;;;;;;;;4950958;28;19980;-84
2023/01/09 11:12:03;;;;;;;;;;;;;;;;;;4991263;28;19928;-94
2023/01/09 11:14:32;;;;;;;;;;;;;;;;;;4971033;28;20106;-94
2023/01/09 11:16:58;;;;;;;;;;;;;;;;;;4965286;28;19921;-87
2023/01/09 11:19:24;;;;;;;;;;;;;;;;;;4960179;28;19925;-90
2023/01/09 11:21:50;;;;;;;;;;;;;;;;;;4959504;28;19932;-93
2023/01/09 11:24:16;;;;;;;;;;;;;;;;;;4964912;28;19933;-85
2023/01/09 11:26:42;;;;;;;;;;;;;;;;;;4979168;28;20028;-78
2023/01/09 11:29:08;;;;;;;;;;;;;;;;;;4956718;28;20687;-80
2023/01/09 11:31:34;;;;;;;;;;;;;;;;;;4978106;28;20454;-79
2023/01/09 11:34:01;;;;;;;;;;;;;;;;;;4955635;28;20545;-80
2023/01/09 11:36:27;;;;;;;;;;;;;;;;;;4985549;28;20360;-85
2023/01/09 11:38:53;;;;;;;;;;;;;;;;;;4953306;28;19928;-77
2023/01/09 11:41:19;;;;;;;;;;;;;;;;;;4954544;28;20371;-84
2023/01/09 11:43:45;;;;;;;;;;;;;;;;;;4959145;28;19980;-84
2023/01/09 11:46:11;;;;;;;;;;;;;;;;;;4971640;28;20474;-79
2023/01/09 11:48:37;;;;;;;;;;;;;;;;;;4956085;28;19965;-80
2023/01/09 11:51:03;;;;;;;;;;;;;;;;;;4954995;28;21316;-82
2023/01/09 11:53:29;;;;;;;;;;;;;;;;;;4987686;28;20439;-81
2023/01/09 11:55:55;;;;;;;;;;;;;;;;;;4957414;28;19926;-82
2023/01/09 11:58:21;;;;;;;;;;;;;;;;;;4987419;28;19921;-84
2023/01/09 12:00:47;;;;;;;;;;;;;;;;;;4972218;28;20315;-80
2023/01/09 12:03:13;;;;;;;;;;;;;;;;;;4954326;28;21325;-80
2023/01/09 12:05:39;;;;;;;;;;;;;;;;;;4955542;28;19928;-84
2023/01/09 12:08:05;;;;;;;;;;;;;;;;;;4957975;28;19983;-83
2023/01/09 12:10:31;;;;;;;;;;;;;;;;;;4975195;28;20560;-82
2023/01/09 12:12:57;;;;;;;;;;;;;;;;;;4975074;28;20232;-83
2023/01/09 12:15:23;;;;;;;;;;;;;;;;;;4975507;28;19925;-83
2023/01/09 12:17:49;;;;;;;;;;;;;;;;;;4979086;28;20380;-88
2023/01/09 12:20:16;;;;;;;;;;;;;;;;;;4982355;28;19940;-89
2023/01/09 12:22:43;;;;;;;;;;;;;;;;;;4955864;28;19922;-77
2023/01/09 12:25:09;;;;;;;;;;;;;;;;;;4974747;28;20032;-77
2023/01/09 12:27:35;;;;;;;;;;;;;;;;;;4956723;28;19921;-84
2023/01/09 12:30:01;;;;;;;;;;;;;;;;;;4973445;28;19921;-87
2023/01/09 12:32:26;;;;;;;;;;;;;;;;;;4976250;28;20529;-79
2023/01/09 12:34:52;;;;;;;;;;;;;;;;;;4957507;28;19932;-77
2023/01/09 12:37:19;;;;;;;;;;;;;;;;;;4958774;28;19926;-81
2023/01/09 12:39:45;;;;;;;;;;;;;;;;;;4958255;28;19930;-90
2023/01/09 12:42:11;;;;;;;;;;;;;;;;;;4975711;28;19929;-91
2023/01/09 12:44:37;;;;;;;;;;;;;;;;;;4955182;28;19940;-78
2023/01/09 12:47:02;;;;;;;;;;;;;;;;;;4974110;28;19995;-77
2023/01/09 12:49:36;;;;;;;0.10;0.10;;;;;;;;;;4990091;28;20589;-77
2023/01/09 12:52:02;;;;;;;;;;;;;;;;;;4956038;28;20041;-77
2023/01/09 12:54:29;;;;;;;;;;;;;;;;;;4989679;28;19926;-78
2023/01/09 12:56:55;;;;;;;;;;;;;;;;;;4956541;28;20392;-79
2023/01/09 12:59:23;;;;;;;;;;;;;;;;;;4941410;28;19922;-78
2023/01/09 13:01:50;;;;;;;;;;;;;;;;;;4987504;28;19936;-78
2023/01/09 13:04:15;;;;;;;;;;;;;;;;;;4956919;28;20588;-78
2023/01/09 13:06:41;;;;;;;;;;;;;;;;;;4971008;28;19928;-78
2023/01/09 13:09:07;;;;;;;;;;;;;;;;;;4988810;28;20376;-79
2023/01/09 13:11:33;;;;;;;;;;;;;;;;;;4986215;28;20020;-79
2023/01/09 13:13:59;;;;;;;;;;;;;;;;;;4974310;28;19922;-79
2023/01/09 13:16:25;;;;;;;;;;;;;;;;;;4975470;28;19926;-79
2023/01/09 13:18:51;;;;;;;;;;;;;;;;;;4988222;28;20603;-78
2023/01/09 13:21:17;;;;;;;;;;;;;;;;;;4957247;28;19925;-79
2023/01/09 13:23:43;;;;;;;;;;;;;;;;;;4955798;28;20529;-78
2023/01/09 13:26:09;;;;;;;;;;;;;;;;;;4985817;28;19974;-78
2023/01/09 13:28:35;;;;;;;;;;;;;;;;;;4976306;28;19929;-80
2023/01/09 13:31:01;;;;;;;;;;;;;;;;;;4980255;28;20411;-82
2023/01/09 13:33:27;;;;;;;;;;;;;;;;;;4977921;28;19957;-77
2023/01/09 13:35:53;;;;;;;;;;;;;;;;;;4956658;28;19933;-75
2023/01/09 13:38:19;;;;;;;;;;;;;;;;;;4957385;28;19922;-76
2023/01/09 13:40:45;;;;;;;;;;;;;;;;;;4960340;28;19936;-76
2023/01/09 13:43:13;;;;;;;;;;;;;;;;;;4957283;28;19930;-75
2023/01/09 13:45:39;;;;;;;;;;;;;;;;;;4961618;28;20036;-76
2023/01/09 13:48:05;;;;;;;;;;;;;;;;;;4979049;28;20644;-73
2023/01/09 13:50:31;;;;;;;;;;;;;;;;;;4959631;28;19921;-74
2023/01/09 13:52:57;;;;;;;;;;;;;;;;;;4974403;28;19998;-78
2023/01/09 13:55:23;;;;;;;;;;;;;;;;;;4988048;28;19930;-74
2023/01/09 13:57:49;;;;;;;;;;;;;;;;;;4970582;28;19925;-74
2023/01/09 14:00:15;;;;;;;;;;;;;;;;;;4958498;28;19930;-75
2023/01/09 14:02:43;;;;;;;;;;;;;;;;;;4971295;28;19925;-75
2023/01/09 14:05:09;;;;;;;;;;;;;;;;;;4959295;28;20032;-75
2023/01/09 14:07:35;;;;;;;;;;;;;;;;;;4976886;28;19978;-75
2023/01/09 14:10:01;;;;;;;;;;;;;;;;;;4976104;28;19969;-75
2023/01/09 14:12:27;;;;;;;;;;;;;;;;;;4976803;28;19933;-75
2023/01/09 14:14:53;;;;;;;;;;;;;;;;;;4958158;28;19922;-75
2023/01/09 14:17:19;;;;;;;;;;;;;;;;;;4977440;28;20691;-75
2023/01/09 14:19:45;;;;;;;;;;;;;;;;;;4976505;28;20173;-75
2023/01/09 14:22:11;;;;;;;;;;;;;;;;;;4977241;28;19926;-75
2023/01/09 14:24:37;;;;;;;;;;;;;;;;;;4977127;28;19925;-76
2023/01/09 14:27:02;;;;;;;;;;;;;;;;;;4957652;28;20010;-76
2023/01/09 14:29:28;;;;;;;;;;;;;;;;;;4956705;28;19932;-76
2023/01/09 14:31:54;;;;;;;;;;;;;;;;;;4978476;28;19925;-82
2023/01/09 14:34:20;;;;;;;;;;;;;;;;;;4974957;28;19936;-77
2023/01/09 14:36:46;;;;;;;;;;;;;;;;;;4959384;28;21571;-80
2023/01/09 14:39:12;;;;;;;;;;;;;;;;;;4958066;28;19999;-79
2023/01/09 14:41:57;;;;;;;;;;;;;;;;;;4959707;28;19932;-77
2023/01/09 14:44:23;;;;;;;;;;;;;;;;;;4952727;28;19941;-74
2023/01/09 14:46:49;;;;;;;;;;;;;;;;;;4959356;28;19921;-77
2023/01/09 14:49:15;;;;;;;;;;;;;;;;;;4989338;28;20326;-77
2023/01/09 14:51:41;;;;;;;;;;;;;;;;;;4978107;28;19925;-76
2023/01/09 14:54:06;;;;;;;;;;;;;;;;;;4971767;28;19925;-75
2023/01/09 14:56:35;;;;;;;;;;;;;;;;;;4957755;28;19962;-75
2023/01/09 14:59:01;;;;;;;;;;;;;;;;;;4957483;28;20484;-75
2023/01/09 15:01:31;;;;;;;;;;;;;;;;;;4956185;28;19930;-75
2023/01/09 15:04:00;;;;;;;;;;;;;;;;;;4956548;28;19965;-75
2023/01/09 15:06:26;;;;;;;;;;;;;;;;;;4956827;28;19922;-75
2023/01/09 15:08:52;;;;;;;;;;;;;;;;;;4988125;28;19925;-74
2023/01/09 15:11:18;;;;;;;;;;;;;;;;;;4957036;28;20073;-75
2023/01/09 15:13:44;;;;;;;;;;;;;;;;;;4957710;28;19921;-74
2023/01/09 15:16:09;;;;;;;;;;;;;;;;;;4957356;28;19926;-76
2023/01/09 15:18:35;;;;;;;;;;;;;;;;;;4957046;28;19948;-76
2023/01/09 15:21:01;;;;;;;;;;;;;;;;;;4958494;28;20020;-75
2023/01/09 15:23:29;;;;;;;;;;;;;;;;;;4957810;28;21518;-75
2023/01/09 15:25:55;;;;;;;;;;;;;;;;;;4989166;28;19925;-75
2023/01/09 15:28:21;;;;;;;;;;;;;;;;;;4988220;28;19929;-74
2023/01/09 15:30:47;;;;;;;;;;;;;;;;;;4956068;28;19925;-75
2023/01/09 15:33:13;;;;;;;;;;;;;;;;;;4955147;28;19936;-76
2023/01/09 15:35:39;;;;;;;;;;;;;;;;;;4957673;28;19944;-76